Terminal Aerodrome Forecast
Issued by NWS Portland, OR

Home | Current Version | Previous Version | Text Only | Print | Product List | Glossary On
Versions: 1 2 3 4 5 6 7 8 9 10 11 12 13 14 15 16 17 18
000
FTUS46 KPQR 272328
TAFHIO
TAF
KHIO 272328Z 2800/2824 21008KT P6SM -SHRA SCT015 BKN025 OVC035
      TEMPO 2800/2804 BKN015
     FM280400 22007KT P6SM -SHRA BKN015
     FM280800 22007KT P6SM -SHRA OVC015
     FM281200 22005KT P6SM VCSH OVC015
     FM282000 23006KT P6SM VCSH SCT025 BKN035=

USA.gov is the U.S. government's official web portal to all federal, state and local government web resources and services.